This is the latest recevied weather packets stored in our database for station/object N5ATR. If no packets are shown the sender has not sent any weather packets the latest 10 day(s).
| Time | Temp. | Humidity | Pressure | Rain* | Wind** | Luminosity | Snow |
|---|---|---|---|---|---|---|---|
| 1777208024 | 5.56° C | 54% | 1009.7 hPa | 0 mm | - | 19 W/m² | - |
| 1777207719 | 5.56° C | 56% | 1009.7 hPa | 0 mm | - | 16 W/m² | - |
| 1777207415 | 4.44° C | 59% | 1009.5 hPa | 0 mm | - | 14 W/m² | - |
| 1777207114 | 3.89° C | 63% | 1009.7 hPa | 0 mm | - | 11 W/m² | - |
| 1777206810 | 3.33° C | 65% | 1009.8 hPa | 0 mm | - | 8 W/m² | - |
| 1777206505 | 3.33° C | 66% | 1010 hPa | 0 mm | - | 6 W/m² | - |
| 1777206201 | 3.33° C | 65% | 1009.8 hPa | 0 mm | - | 3 W/m² | - |
| 1777205896 | 3.33° C | 65% | 1009.8 hPa | 0 mm | - | 2 W/m² | - |
| 1777205592 | 3.89° C | 64% | 1009.8 hPa | 0 mm | - | 1 W/m² | - |
| 1777205290 | 3.33° C | 66% | 1009.6 hPa | 0 mm | - | 0 W/m² | - |
| 1777204990 | 3.33° C | 66% | 1009.6 hPa | 0 mm | - | 0 W/m² | - |
| 1777204685 | 3.89° C | 65% | 1009.8 hPa | 0 mm | - | 0 W/m² | - |
| 1777204380 | 3.33° C | 67% | 1009.8 hPa | 0 mm | - | 0 W/m² | - |
| 1777204078 | 3.33° C | 67% | 1009.7 hPa | 0 mm | - | 0 W/m² | - |
| 1777203773 | 3.89° C | 66% | 1009.7 hPa | 0 mm | - | 0 W/m² | - |
| 1777203468 | 3.33° C | 66% | 1009.8 hPa | 0 mm | - | 0 W/m² | - |
| 1777203164 | 3.33° C | 68% | 1009.8 hPa | 0 mm | - | 0 W/m² | - |
| 1777202861 | 3.89° C | 66% | 1009.8 hPa | 0 mm | - | 0 W/m² | - |
| 1777202560 | 3.89° C | 65% | 1010 hPa | 0 mm | - | 0 W/m² | - |
| 1777202255 | 3.89° C | 64% | 1009.7 hPa | 0 mm | - | 0 W/m² | - |
| 1777201952 | 4.44° C | 63% | 1009.7 hPa | 0 mm | - | 0 W/m² | - |
| 1777201647 | 5° C | 61% | 1010.1 hPa | 0 mm | - | 0 W/m² | - |
| 1777201343 | 5.56° C | 58% | 1010.1 hPa | 0 mm | - | 0 W/m² | - |
| 1777201039 | 6.67° C | 56% | 1010.1 hPa | 0 mm | - | 0 W/m² | - |
| 1777200736 | 7.22° C | 52% | 1010.2 hPa | 0 mm | - | 0 W/m² | - |
* Rain latest hour (hover to see other rain measurements)
** Current wind speed in m/s (hover to see current wind gust speed)